Prince Albert Glass Field
CYPA : now visible

Airfield :











YOU CAN JOIN US ON...

 
LOGIN :

Register | Disclaimer

   EN    FR    IT 

 









Legend :    VFR   Marginal VFR   IFR   Intensive IFR   Very Intensive IFR
Visi :
Ceiling :
>= 8 km
>= 3000ft
5 to 8 km
1000 to 3000 ft
1500m to 5 km
500 to 1000 ft
800 to 1500m
200 to 500 ft
< 800m
< 200 ft
Symbols :   Thunderstorms  Fog  Heavy snow  Heavy precipitations  Wind > 20 kt







- Airport Elevation : 1405 ft
- IATA code : YPA


CYPA - Prince Albert Glass Field

CURRENT METAR :
  • 260500Z 34007KT 15SM FEW090 SCT250 14/10 A2978 RMK AC2CI1 SLP093 DENSITY ALT 1800FT

EXPIRED METARs :
  • 260400Z 30006KT 15SM FEW110 SCT250 13/11 A2977 RMK AC2CI2 SLP090 DENSITY ALT 1800FT
  • 260300Z VRB02KT 15SM FEW040 SCT110 BKN250 15/12 A2976 RMK SC1AC2CI2 SLP088 DENSITY ALT 2000FT

TAF TAF CYPA
Valid from the 26 at 01:00 until the 26 at 13:00 UTC


260038Z 2601/2613 35005KT P6SM FEW050
PROB30 2601/2609 1/2SM FG
FM260900 31006KT P6SM FEW020 BKN040
TEMPO 2609/2613 4SM -SHRA BR BKN020 BKN040 RMK NXT FCST BY 260700Z
No reported NOTAMs for that airfield.



MET'MAP, your aeronautical weather chart ! - Copyright ORBIFLY December 2007 - Disclaimer

ORBIFLY MET'MAP TEAM :

Programming & Development : Alexandra Zaïnal
Concept & Development : Baudouin d'Aumeries
Co-Development & Prog : Marc-Olivier Méhu
Technical & hardware support : Manuel Goepfert

Contact : metmap@orbifly.com




SOURCES & CREDITS :

   NOAA       Earth
Advisory